sensor_id;sensor_type;location;lat;lon;timestamp;temperature;humidity
65374;SHT31;52070;53.760;9.678;2023-05-16T00:02:01;10.67;79.38
65374;SHT31;52070;53.760;9.678;2023-05-16T00:04:30;10.67;79.27
65374;SHT31;52070;53.760;9.678;2023-05-16T00:06:58;10.63;79.20
65374;SHT31;52070;53.760;9.678;2023-05-16T00:09:26;10.60;79.45
65374;SHT31;52070;53.760;9.678;2023-05-16T00:11:53;10.56;79.54
65374;SHT31;52070;53.760;9.678;2023-05-16T00:14:20;10.58;79.52
65374;SHT31;52070;53.760;9.678;2023-05-16T00:16:52;10.56;79.75
65374;SHT31;52070;53.760;9.678;2023-05-16T00:19:19;10.61;80.05
65374;SHT31;52070;53.760;9.678;2023-05-16T00:21:46;10.71;79.72
65374;SHT31;52070;53.760;9.678;2023-05-16T00:24:13;10.67;79.53
65374;SHT31;52070;53.760;9.678;2023-05-16T00:26:41;10.63;79.98
65374;SHT31;52070;53.760;9.678;2023-05-16T00:29:08;10.64;79.84
65374;SHT31;52070;53.760;9.678;2023-05-16T00:31:35;10.64;79.88
65374;SHT31;52070;53.760;9.678;2023-05-16T00:34:02;10.57;79.97
65374;SHT31;52070;53.760;9.678;2023-05-16T00:36:29;10.56;80.12
65374;SHT31;52070;53.760;9.678;2023-05-16T00:38:56;10.51;80.31
65374;SHT31;52070;53.760;9.678;2023-05-16T00:41:23;10.54;80.34
65374;SHT31;52070;53.760;9.678;2023-05-16T00:43:52;10.54;80.33
65374;SHT31;52070;53.760;9.678;2023-05-16T00:46:19;10.58;80.12
65374;SHT31;52070;53.760;9.678;2023-05-16T00:48:46;10.60;80.00
65374;SHT31;52070;53.760;9.678;2023-05-16T00:51:13;10.63;80.02
65374;SHT31;52070;53.760;9.678;2023-05-16T00:53:40;10.63;79.99
65374;SHT31;52070;53.760;9.678;2023-05-16T00:56:07;10.63;80.16
65374;SHT31;52070;53.760;9.678;2023-05-16T00:58:34;10.60;80.44
65374;SHT31;52070;53.760;9.678;2023-05-16T01:01:04;10.64;80.54
65374;SHT31;52070;53.760;9.678;2023-05-16T01:03:32;10.60;80.82
65374;SHT31;52070;53.760;9.678;2023-05-16T01:06:00;10.65;81.21
65374;SHT31;52070;53.760;9.678;2023-05-16T01:08:27;10.71;81.24
65374;SHT31;52070;53.760;9.678;2023-05-16T01:10:59;10.63;81.03
65374;SHT31;52070;53.760;9.678;2023-05-16T01:13:34;10.56;81.09
65374;SHT31;52070;53.760;9.678;2023-05-16T01:16:09;10.51;80.38
65374;SHT31;52070;53.760;9.678;2023-05-16T01:18:44;10.44;80.80
65374;SHT31;52070;53.760;9.678;2023-05-16T01:21:19;10.46;81.15
65374;SHT31;52070;53.760;9.678;2023-05-16T01:23:59;10.36;81.37
65374;SHT31;52070;53.760;9.678;2023-05-16T01:26:30;10.44;80.99
65374;SHT31;52070;53.760;9.678;2023-05-16T01:28:58;10.44;80.47
65374;SHT31;52070;53.760;9.678;2023-05-16T01:31:25;10.44;80.16
65374;SHT31;52070;53.760;9.678;2023-05-16T01:33:53;10.38;79.44
65374;SHT31;52070;53.760;9.678;2023-05-16T01:36:24;10.37;79.12
65374;SHT31;52070;53.760;9.678;2023-05-16T01:39:02;10.38;78.99
65374;SHT31;52070;53.760;9.678;2023-05-16T01:41:40;10.40;78.62
65374;SHT31;52070;53.760;9.678;2023-05-16T01:44:16;10.41;78.02
65374;SHT31;52070;53.760;9.678;2023-05-16T01:46:45;10.40;78.14
65374;SHT31;52070;53.760;9.678;2023-05-16T01:49:15;10.40;78.20
65374;SHT31;52070;53.760;9.678;2023-05-16T01:51:50;10.37;78.07
65374;SHT31;52070;53.760;9.678;2023-05-16T01:54:20;10.34;78.22
65374;SHT31;52070;53.760;9.678;2023-05-16T01:56:51;10.37;78.21
65374;SHT31;52070;53.760;9.678;2023-05-16T01:59:19;10.34;77.99
65374;SHT31;52070;53.760;9.678;2023-05-16T02:01:47;10.29;78.17
65374;SHT31;52070;53.760;9.678;2023-05-16T02:04:14;10.24;78.36
65374;SHT31;52070;53.760;9.678;2023-05-16T02:06:41;10.21;78.28
65374;SHT31;52070;53.760;9.678;2023-05-16T02:09:08;10.23;78.32
65374;SHT31;52070;53.760;9.678;2023-05-16T02:11:35;10.20;78.31
65374;SHT31;52070;53.760;9.678;2023-05-16T02:14:04;10.29;78.07
65374;SHT31;52070;53.760;9.678;2023-05-16T02:16:31;10.20;78.10
65374;SHT31;52070;53.760;9.678;2023-05-16T02:18:58;10.23;78.24
65374;SHT31;52070;53.760;9.678;2023-05-16T02:21:25;10.24;78.21
65374;SHT31;52070;53.760;9.678;2023-05-16T02:23:52;10.20;77.85
65374;SHT31;52070;53.760;9.678;2023-05-16T02:26:19;10.18;78.52
65374;SHT31;52070;53.760;9.678;2023-05-16T02:28:46;10.20;78.30
65374;SHT31;52070;53.760;9.678;2023-05-16T02:31:26;10.18;78.25
65374;SHT31;52070;53.760;9.678;2023-05-16T02:33:53;10.17;78.06
65374;SHT31;52070;53.760;9.678;2023-05-16T02:36:20;10.13;78.22
65374;SHT31;52070;53.760;9.678;2023-05-16T02:38:47;10.09;78.01
65374;SHT31;52070;53.760;9.678;2023-05-16T02:41:14;10.10;78.15
65374;SHT31;52070;53.760;9.678;2023-05-16T02:43:41;10.06;78.07
65374;SHT31;52070;53.760;9.678;2023-05-16T02:46:25;10.04;78.19
65374;SHT31;52070;53.760;9.678;2023-05-16T02:48:53;10.06;77.61
65374;SHT31;52070;53.760;9.678;2023-05-16T02:51:21;10.10;77.52
65374;SHT31;52070;53.760;9.678;2023-05-16T02:53:49;10.06;77.80
65374;SHT31;52070;53.760;9.678;2023-05-16T02:56:16;9.99;77.31
65374;SHT31;52070;53.760;9.678;2023-05-16T02:58:46;9.99;77.28
65374;SHT31;52070;53.760;9.678;2023-05-16T03:01:13;9.95;77.42
65374;SHT31;52070;53.760;9.678;2023-05-16T03:03:42;9.97;77.19
65374;SHT31;52070;53.760;9.678;2023-05-16T03:06:09;9.92;77.24
65374;SHT31;52070;53.760;9.678;2023-05-16T03:08:36;9.90;77.48
65374;SHT31;52070;53.760;9.678;2023-05-16T03:11:03;10.02;77.29
65374;SHT31;52070;53.760;9.678;2023-05-16T03:13:30;9.95;77.23
65374;SHT31;52070;53.760;9.678;2023-05-16T03:15:57;9.83;77.63
65374;SHT31;52070;53.760;9.678;2023-05-16T03:18:24;9.85;77.73
65374;SHT31;52070;53.760;9.678;2023-05-16T03:20:53;9.79;77.82
65374;SHT31;52070;53.760;9.678;2023-05-16T03:23:20;9.86;77.88
65374;SHT31;52070;53.760;9.678;2023-05-16T03:25:48;9.82;77.81
65374;SHT31;52070;53.760;9.678;2023-05-16T03:28:16;9.86;78.01
65374;SHT31;52070;53.760;9.678;2023-05-16T03:30:43;9.81;77.76
65374;SHT31;52070;53.760;9.678;2023-05-16T03:33:10;9.76;77.53
65374;SHT31;52070;53.760;9.678;2023-05-16T03:35:38;9.82;77.46
65374;SHT31;52070;53.760;9.678;2023-05-16T03:38:07;9.85;77.37
65374;SHT31;52070;53.760;9.678;2023-05-16T03:40:34;9.85;77.37
65374;SHT31;52070;53.760;9.678;2023-05-16T03:43:01;9.79;77.45
65374;SHT31;52070;53.760;9.678;2023-05-16T03:45:29;9.90;77.23
65374;SHT31;52070;53.760;9.678;2023-05-16T03:47:56;9.90;76.88
65374;SHT31;52070;53.760;9.678;2023-05-16T03:50:23;9.90;76.85
65374;SHT31;52070;53.760;9.678;2023-05-16T03:52:51;9.97;76.32
65374;SHT31;52070;53.760;9.678;2023-05-16T03:55:20;9.96;76.19
65374;SHT31;52070;53.760;9.678;2023-05-16T03:57:47;9.95;76.05
65374;SHT31;52070;53.760;9.678;2023-05-16T04:00:15;9.90;75.80
65374;SHT31;52070;53.760;9.678;2023-05-16T04:02:42;9.87;75.93
65374;SHT31;52070;53.760;9.678;2023-05-16T04:05:10;9.87;75.44
65374;SHT31;52070;53.760;9.678;2023-05-16T04:07:38;9.89;75.26
65374;SHT31;52070;53.760;9.678;2023-05-16T04:10:06;9.73;75.79
65374;SHT31;52070;53.760;9.678;2023-05-16T04:12:34;9.66;75.58
65374;SHT31;52070;53.760;9.678;2023-05-16T04:15:01;9.68;75.67
65374;SHT31;52070;53.760;9.678;2023-05-16T04:17:29;9.73;74.93
65374;SHT31;52070;53.760;9.678;2023-05-16T04:19:56;9.71;74.44
65374;SHT31;52070;53.760;9.678;2023-05-16T04:22:23;9.72;74.38
65374;SHT31;52070;53.760;9.678;2023-05-16T04:24:50;9.66;74.80
65374;SHT31;52070;53.760;9.678;2023-05-16T04:27:17;9.75;74.14
65374;SHT31;52070;53.760;9.678;2023-05-16T04:29:45;9.73;73.99
65374;SHT31;52070;53.760;9.678;2023-05-16T04:32:12;9.69;72.95
65374;SHT31;52070;53.760;9.678;2023-05-16T04:34:40;9.65;73.08
65374;SHT31;52070;53.760;9.678;2023-05-16T04:37:08;9.66;73.04
65374;SHT31;52070;53.760;9.678;2023-05-16T04:39:36;9.65;73.07
65374;SHT31;52070;53.760;9.678;2023-05-16T04:42:04;9.61;73.30
65374;SHT31;52070;53.760;9.678;2023-05-16T04:44:31;9.62;73.04
65374;SHT31;52070;53.760;9.678;2023-05-16T04:47:00;9.69;72.47
65374;SHT31;52070;53.760;9.678;2023-05-16T04:49:27;9.82;72.78
65374;SHT31;52070;53.760;9.678;2023-05-16T04:51:54;9.82;72.58
65374;SHT31;52070;53.760;9.678;2023-05-16T04:54:21;9.78;71.85
65374;SHT31;52070;53.760;9.678;2023-05-16T04:56:50;9.85;71.24
65374;SHT31;52070;53.760;9.678;2023-05-16T04:59:17;9.83;71.48
65374;SHT31;52070;53.760;9.678;2023-05-16T05:01:45;9.85;71.15
65374;SHT31;52070;53.760;9.678;2023-05-16T05:04:14;9.87;71.83
65374;SHT31;52070;53.760;9.678;2023-05-16T05:06:43;9.92;71.65
65374;SHT31;52070;53.760;9.678;2023-05-16T05:09:10;9.97;71.57
65374;SHT31;52070;53.760;9.678;2023-05-16T05:11:42;10.07;71.38
65374;SHT31;52070;53.760;9.678;2023-05-16T05:14:09;9.99;71.51
65374;SHT31;52070;53.760;9.678;2023-05-16T05:16:35;9.99;71.40
65374;SHT31;52070;53.760;9.678;2023-05-16T05:19:03;9.96;71.32
65374;SHT31;52070;53.760;9.678;2023-05-16T05:21:31;10.12;71.37
65374;SHT31;52070;53.760;9.678;2023-05-16T05:24:04;10.20;71.10
65374;SHT31;52070;53.760;9.678;2023-05-16T05:26:31;10.21;71.06
65374;SHT31;52070;53.760;9.678;2023-05-16T05:29:06;10.18;70.58
65374;SHT31;52070;53.760;9.678;2023-05-16T05:31:33;10.17;70.71
65374;SHT31;52070;53.760;9.678;2023-05-16T05:34:01;10.16;70.75
65374;SHT31;52070;53.760;9.678;2023-05-16T05:36:28;10.29;70.24
65374;SHT31;52070;53.760;9.678;2023-05-16T05:38:57;10.32;69.53
65374;SHT31;52070;53.760;9.678;2023-05-16T05:41:24;10.30;69.53
65374;SHT31;52070;53.760;9.678;2023-05-16T05:43:51;10.27;69.13
65374;SHT31;52070;53.760;9.678;2023-05-16T05:46:18;10.34;69.30
65374;SHT31;52070;53.760;9.678;2023-05-16T05:48:46;10.26;69.59
65374;SHT31;52070;53.760;9.678;2023-05-16T05:51:13;10.32;68.71
65374;SHT31;52070;53.760;9.678;2023-05-16T05:53:40;10.33;68.73
65374;SHT31;52070;53.760;9.678;2023-05-16T05:56:08;10.43;68.58
65374;SHT31;52070;53.760;9.678;2023-05-16T05:58:35;10.50;68.56
65374;SHT31;52070;53.760;9.678;2023-05-16T06:01:02;10.64;68.42
65374;SHT31;52070;53.760;9.678;2023-05-16T06:03:29;10.81;68.08
65374;SHT31;52070;53.760;9.678;2023-05-16T06:05:56;10.81;67.31
65374;SHT31;52070;53.760;9.678;2023-05-16T06:08:23;10.89;66.72
65374;SHT31;52070;53.760;9.678;2023-05-16T06:10:50;10.91;67.39
65374;SHT31;52070;53.760;9.678;2023-05-16T06:13:19;10.95;67.07
65374;SHT31;52070;53.760;9.678;2023-05-16T06:15:49;10.91;67.57
65374;SHT31;52070;53.760;9.678;2023-05-16T06:18:16;10.74;66.58
65374;SHT31;52070;53.760;9.678;2023-05-16T06:20:43;10.61;66.85
65374;SHT31;52070;53.760;9.678;2023-05-16T06:23:10;10.48;68.04
65374;SHT31;52070;53.760;9.678;2023-05-16T06:25:37;10.48;67.20
65374;SHT31;52070;53.760;9.678;2023-05-16T06:28:04;10.54;67.29
65374;SHT31;52070;53.760;9.678;2023-05-16T06:30:32;10.71;67.16
65374;SHT31;52070;53.760;9.678;2023-05-16T06:33:00;10.84;66.82
65374;SHT31;52070;53.760;9.678;2023-05-16T06:35:27;10.95;66.07
65374;SHT31;52070;53.760;9.678;2023-05-16T06:37:54;10.94;65.08
65374;SHT31;52070;53.760;9.678;2023-05-16T06:40:21;10.84;64.66
65374;SHT31;52070;53.760;9.678;2023-05-16T06:42:47;10.84;65.65
65374;SHT31;52070;53.760;9.678;2023-05-16T06:45:15;10.91;65.79
65374;SHT31;52070;53.760;9.678;2023-05-16T06:47:43;10.82;65.71
65374;SHT31;52070;53.760;9.678;2023-05-16T06:50:10;10.75;65.28
65374;SHT31;52070;53.760;9.678;2023-05-16T06:52:37;10.87;66.54
65374;SHT31;52070;53.760;9.678;2023-05-16T06:55:04;10.77;65.82
65374;SHT31;52070;53.760;9.678;2023-05-16T06:57:31;10.74;65.83
65374;SHT31;52070;53.760;9.678;2023-05-16T06:59:58;10.78;66.74
65374;SHT31;52070;53.760;9.678;2023-05-16T07:02:25;10.84;65.71
65374;SHT31;52070;53.760;9.678;2023-05-16T07:04:54;10.85;64.88
65374;SHT31;52070;53.760;9.678;2023-05-16T07:07:23;10.99;63.84
65374;SHT31;52070;53.760;9.678;2023-05-16T07:09:50;10.92;62.85
65374;SHT31;52070;53.760;9.678;2023-05-16T07:12:17;11.09;63.71
65374;SHT31;52070;53.760;9.678;2023-05-16T07:14:44;11.11;62.15
65374;SHT31;52070;53.760;9.678;2023-05-16T07:17:11;11.15;60.01
65374;SHT31;52070;53.760;9.678;2023-05-16T07:19:38;11.15;60.36
65374;SHT31;52070;53.760;9.678;2023-05-16T07:22:06;11.16;60.39
65374;SHT31;52070;53.760;9.678;2023-05-16T07:24:33;11.29;60.66
65374;SHT31;52070;53.760;9.678;2023-05-16T07:27:01;11.55;60.00
65374;SHT31;52070;53.760;9.678;2023-05-16T07:29:27;11.66;58.24
65374;SHT31;52070;53.760;9.678;2023-05-16T07:31:55;11.74;58.45
65374;SHT31;52070;53.760;9.678;2023-05-16T07:34:22;11.86;57.51
65374;SHT31;52070;53.760;9.678;2023-05-16T07:36:49;11.82;56.41
65374;SHT31;52070;53.760;9.678;2023-05-16T07:39:17;12.00;57.30
65374;SHT31;52070;53.760;9.678;2023-05-16T07:41:44;11.94;56.67
65374;SHT31;52070;53.760;9.678;2023-05-16T07:44:11;11.77;56.82
65374;SHT31;52070;53.760;9.678;2023-05-16T07:46:38;11.94;59.25
65374;SHT31;52070;53.760;9.678;2023-05-16T07:49:05;11.94;57.31
65374;SHT31;52070;53.760;9.678;2023-05-16T07:51:32;11.91;58.29
65374;SHT31;52070;53.760;9.678;2023-05-16T07:53:59;11.84;58.85
65374;SHT31;52070;53.760;9.678;2023-05-16T07:56:28;11.93;59.24
65374;SHT31;52070;53.760;9.678;2023-05-16T07:58:55;11.89;58.61
65374;SHT31;52070;53.760;9.678;2023-05-16T08:01:22;11.82;59.21
65374;SHT31;52070;53.760;9.678;2023-05-16T08:03:49;11.98;58.17
65374;SHT31;52070;53.760;9.678;2023-05-16T08:06:17;12.18;57.45
65374;SHT31;52070;53.760;9.678;2023-05-16T08:08:44;12.21;57.60
65374;SHT31;52070;53.760;9.678;2023-05-16T08:11:11;12.23;56.82
65374;SHT31;52070;53.760;9.678;2023-05-16T08:13:39;12.08;57.33
65374;SHT31;52070;53.760;9.678;2023-05-16T08:16:06;12.08;57.87
65374;SHT31;52070;53.760;9.678;2023-05-16T08:18:33;12.14;56.92
65374;SHT31;52070;53.760;9.678;2023-05-16T08:21:00;12.40;55.97
65374;SHT31;52070;53.760;9.678;2023-05-16T08:23:27;12.42;56.61
65374;SHT31;52070;53.760;9.678;2023-05-16T08:25:54;12.30;57.19
65374;SHT31;52070;53.760;9.678;2023-05-16T08:28:21;12.18;58.81
65374;SHT31;52070;53.760;9.678;2023-05-16T08:30:50;12.18;58.41
65374;SHT31;52070;53.760;9.678;2023-05-16T08:33:17;12.27;59.63
65374;SHT31;52070;53.760;9.678;2023-05-16T08:35:44;12.30;58.88
65374;SHT31;52070;53.760;9.678;2023-05-16T08:38:13;12.40;57.66
65374;SHT31;52070;53.760;9.678;2023-05-16T08:40:41;12.06;57.19
65374;SHT31;52070;53.760;9.678;2023-05-16T08:43:08;11.72;54.87
65374;SHT31;52070;53.760;9.678;2023-05-16T08:45:35;11.59;57.00
65374;SHT31;52070;53.760;9.678;2023-05-16T08:48:05;11.60;58.71
65374;SHT31;52070;53.760;9.678;2023-05-16T08:50:34;11.29;60.40
65374;SHT31;52070;53.760;9.678;2023-05-16T08:53:04;11.42;61.52
65374;SHT31;52070;53.760;9.678;2023-05-16T08:55:32;11.49;61.30
65374;SHT31;52070;53.760;9.678;2023-05-16T08:57:59;11.83;60.68
65374;SHT31;52070;53.760;9.678;2023-05-16T09:00:27;12.07;60.23
65374;SHT31;52070;53.760;9.678;2023-05-16T09:02:54;12.31;59.35
65374;SHT31;52070;53.760;9.678;2023-05-16T09:05:23;12.49;58.02
65374;SHT31;52070;53.760;9.678;2023-05-16T09:07:50;12.41;57.75
65374;SHT31;52070;53.760;9.678;2023-05-16T09:10:17;12.49;56.52
65374;SHT31;52070;53.760;9.678;2023-05-16T09:12:44;12.45;54.47
65374;SHT31;52070;53.760;9.678;2023-05-16T09:15:11;12.57;55.24
65374;SHT31;52070;53.760;9.678;2023-05-16T09:17:39;12.74;54.63
65374;SHT31;52070;53.760;9.678;2023-05-16T09:20:11;12.91;53.93
65374;SHT31;52070;53.760;9.678;2023-05-16T09:22:49;13.13;53.57
65374;SHT31;52070;53.760;9.678;2023-05-16T09:25:17;13.53;54.56
65374;SHT31;52070;53.760;9.678;2023-05-16T09:27:45;13.24;54.98
65374;SHT31;52070;53.760;9.678;2023-05-16T09:30:13;12.65;55.30
65374;SHT31;52070;53.760;9.678;2023-05-16T09:32:42;12.89;54.73
65374;SHT31;52070;53.760;9.678;2023-05-16T09:35:10;13.00;53.01
65374;SHT31;52070;53.760;9.678;2023-05-16T09:37:37;12.93;53.43
65374;SHT31;52070;53.760;9.678;2023-05-16T09:40:11;13.23;54.42
65374;SHT31;52070;53.760;9.678;2023-05-16T09:42:38;13.47;54.90
65374;SHT31;52070;53.760;9.678;2023-05-16T09:45:06;13.12;56.18
65374;SHT31;52070;53.760;9.678;2023-05-16T09:47:37;13.69;55.40
65374;SHT31;52070;53.760;9.678;2023-05-16T09:50:12;13.38;55.14
65374;SHT31;52070;53.760;9.678;2023-05-16T09:52:41;13.39;53.56
65374;SHT31;52070;53.760;9.678;2023-05-16T09:55:11;13.02;54.86
65374;SHT31;52070;53.760;9.678;2023-05-16T09:57:38;12.68;56.33
65374;SHT31;52070;53.760;9.678;2023-05-16T10:00:06;12.58;57.81
65374;SHT31;52070;53.760;9.678;2023-05-16T10:02:36;13.12;54.41
65374;SHT31;52070;53.760;9.678;2023-05-16T10:05:04;13.50;52.96
65374;SHT31;52070;53.760;9.678;2023-05-16T10:07:31;13.81;53.51
65374;SHT31;52070;53.760;9.678;2023-05-16T10:10:00;14.52;53.24
65374;SHT31;52070;53.760;9.678;2023-05-16T10:12:32;14.55;48.80
65374;SHT31;52070;53.760;9.678;2023-05-16T10:14:59;14.04;48.53
65374;SHT31;52070;53.760;9.678;2023-05-16T10:17:29;13.50;48.18
65374;SHT31;52070;53.760;9.678;2023-05-16T10:19:59;13.36;51.38
65374;SHT31;52070;53.760;9.678;2023-05-16T10:22:27;14.03;51.50
65374;SHT31;52070;53.760;9.678;2023-05-16T10:24:59;14.79;51.27
65374;SHT31;52070;53.760;9.678;2023-05-16T10:27:27;14.73;48.21
65374;SHT31;52070;53.760;9.678;2023-05-16T10:29:56;13.83;51.35
65374;SHT31;52070;53.760;9.678;2023-05-16T10:32:25;13.24;52.08
65374;SHT31;52070;53.760;9.678;2023-05-16T10:34:53;12.74;54.89
65374;SHT31;52070;53.760;9.678;2023-05-16T10:37:21;12.82;54.15
65374;SHT31;52070;53.760;9.678;2023-05-16T10:39:49;12.28;54.84
65374;SHT31;52070;53.760;9.678;2023-05-16T10:42:16;12.04;56.48
65374;SHT31;52070;53.760;9.678;2023-05-16T10:44:45;12.71;56.27
65374;SHT31;52070;53.760;9.678;2023-05-16T10:47:20;13.30;55.73
65374;SHT31;52070;53.760;9.678;2023-05-16T10:49:47;13.74;53.61
65374;SHT31;52070;53.760;9.678;2023-05-16T10:52:14;13.73;52.98
65374;SHT31;52070;53.760;9.678;2023-05-16T10:54:47;13.98;51.30
65374;SHT31;52070;53.760;9.678;2023-05-16T10:57:18;13.98;49.07
65374;SHT31;52070;53.760;9.678;2023-05-16T10:59:47;14.00;49.12
65374;SHT31;52070;53.760;9.678;2023-05-16T11:02:24;13.81;46.43
65374;SHT31;52070;53.760;9.678;2023-05-16T11:04:52;14.51;48.22
65374;SHT31;52070;53.760;9.678;2023-05-16T11:07:20;14.95;47.42
65374;SHT31;52070;53.760;9.678;2023-05-16T11:10:01;15.13;45.74
65374;SHT31;52070;53.760;9.678;2023-05-16T11:12:38;14.44;46.76
65374;SHT31;52070;53.760;9.678;2023-05-16T11:15:23;15.18;48.42
65374;SHT31;52070;53.760;9.678;2023-05-16T11:18:02;14.98;48.05
65374;SHT31;52070;53.760;9.678;2023-05-16T11:20:32;14.36;48.65
65374;SHT31;52070;53.760;9.678;2023-05-16T11:23:19;13.97;50.31
65374;SHT31;52070;53.760;9.678;2023-05-16T11:25:47;14.15;50.47
65374;SHT31;52070;53.760;9.678;2023-05-16T11:28:17;14.22;51.13
65374;SHT31;52070;53.760;9.678;2023-05-16T11:30:46;14.48;51.35
65374;SHT31;52070;53.760;9.678;2023-05-16T11:33:14;14.41;49.51
65374;SHT31;52070;53.760;9.678;2023-05-16T11:35:42;14.61;49.22
65374;SHT31;52070;53.760;9.678;2023-05-16T11:38:12;14.44;47.42
65374;SHT31;52070;53.760;9.678;2023-05-16T11:40:42;14.24;46.24
65374;SHT31;52070;53.760;9.678;2023-05-16T11:43:09;13.43;52.21
65374;SHT31;52070;53.760;9.678;2023-05-16T11:45:36;12.68;55.50
65374;SHT31;52070;53.760;9.678;2023-05-16T11:48:04;12.78;57.51
65374;SHT31;52070;53.760;9.678;2023-05-16T11:50:34;12.98;58.03
65374;SHT31;52070;53.760;9.678;2023-05-16T11:53:01;13.67;56.95
65374;SHT31;52070;53.760;9.678;2023-05-16T11:55:29;13.78;54.58
65374;SHT31;52070;53.760;9.678;2023-05-16T11:57:57;13.78;55.28
65374;SHT31;52070;53.760;9.678;2023-05-16T12:00:25;14.07;55.17
65374;SHT31;52070;53.760;9.678;2023-05-16T12:02:57;13.15;56.55
65374;SHT31;52070;53.760;9.678;2023-05-16T12:05:27;12.34;59.53
65374;SHT31;52070;53.760;9.678;2023-05-16T12:07:57;11.97;61.41
65374;SHT31;52070;53.760;9.678;2023-05-16T12:10:24;11.89;62.31
65374;SHT31;52070;53.760;9.678;2023-05-16T12:12:51;11.18;64.05
65374;SHT31;52070;53.760;9.678;2023-05-16T12:15:20;11.72;63.33
65374;SHT31;52070;53.760;9.678;2023-05-16T12:17:48;11.87;62.28
65374;SHT31;52070;53.760;9.678;2023-05-16T12:20:16;12.03;63.09
65374;SHT31;52070;53.760;9.678;2023-05-16T12:22:44;11.83;65.73
65374;SHT31;52070;53.760;9.678;2023-05-16T12:25:26;11.35;67.08
65374;SHT31;52070;53.760;9.678;2023-05-16T12:27:53;11.47;66.85
65374;SHT31;52070;53.760;9.678;2023-05-16T12:30:21;11.62;63.39
65374;SHT31;52070;53.760;9.678;2023-05-16T12:32:54;12.37;61.31
65374;SHT31;52070;53.760;9.678;2023-05-16T12:35:22;12.84;56.49
65374;SHT31;52070;53.760;9.678;2023-05-16T12:37:49;12.81;54.55
65374;SHT31;52070;53.760;9.678;2023-05-16T12:40:17;12.52;55.73
65374;SHT31;52070;53.760;9.678;2023-05-16T12:42:48;11.77;59.78
65374;SHT31;52070;53.760;9.678;2023-05-16T12:45:15;11.26;62.76
65374;SHT31;52070;53.760;9.678;2023-05-16T12:47:43;11.19;66.48
65374;SHT31;52070;53.760;9.678;2023-05-16T12:50:11;11.52;67.60
65374;SHT31;52070;53.760;9.678;2023-05-16T12:52:46;11.89;67.05
65374;SHT31;52070;53.760;9.678;2023-05-16T12:55:14;11.59;66.27
65374;SHT31;52070;53.760;9.678;2023-05-16T12:57:42;10.95;65.94
65374;SHT31;52070;53.760;9.678;2023-05-16T13:00:12;10.50;68.37
65374;SHT31;52070;53.760;9.678;2023-05-16T13:02:40;10.41;70.13
65374;SHT31;52070;53.760;9.678;2023-05-16T13:05:07;10.50;68.06
65374;SHT31;52070;53.760;9.678;2023-05-16T13:07:35;10.85;68.34
65374;SHT31;52070;53.760;9.678;2023-05-16T13:10:02;11.32;67.47
65374;SHT31;52070;53.760;9.678;2023-05-16T13:12:30;11.93;64.69
65374;SHT31;52070;53.760;9.678;2023-05-16T13:14:57;11.87;63.16
65374;SHT31;52070;53.760;9.678;2023-05-16T13:17:26;12.04;63.16
65374;SHT31;52070;53.760;9.678;2023-05-16T13:19:54;12.41;61.72
65374;SHT31;52070;53.760;9.678;2023-05-16T13:22:21;13.19;60.51
65374;SHT31;52070;53.760;9.678;2023-05-16T13:24:48;13.36;56.80
65374;SHT31;52070;53.760;9.678;2023-05-16T13:27:16;13.70;54.55
65374;SHT31;52070;53.760;9.678;2023-05-16T13:29:43;13.36;56.44
65374;SHT31;52070;53.760;9.678;2023-05-16T13:32:10;13.13;55.80
65374;SHT31;52070;53.760;9.678;2023-05-16T13:34:38;12.99;53.85
65374;SHT31;52070;53.760;9.678;2023-05-16T13:37:05;12.74;54.51
65374;SHT31;52070;53.760;9.678;2023-05-16T13:39:32;12.78;54.33
65374;SHT31;52070;53.760;9.678;2023-05-16T13:41:59;13.52;53.50
65374;SHT31;52070;53.760;9.678;2023-05-16T13:44:28;13.26;53.35
65374;SHT31;52070;53.760;9.678;2023-05-16T13:46:55;13.71;53.66
65374;SHT31;52070;53.760;9.678;2023-05-16T13:49:22;14.07;52.66
65374;SHT31;52070;53.760;9.678;2023-05-16T13:51:51;13.15;54.74
65374;SHT31;52070;53.760;9.678;2023-05-16T13:54:19;12.65;54.73
65374;SHT31;52070;53.760;9.678;2023-05-16T13:56:46;12.00;55.43
65374;SHT31;52070;53.760;9.678;2023-05-16T13:59:13;12.77;52.49
65374;SHT31;52070;53.760;9.678;2023-05-16T14:01:40;12.89;52.03
65374;SHT31;52070;53.760;9.678;2023-05-16T14:04:07;12.88;52.09
65374;SHT31;52070;53.760;9.678;2023-05-16T14:06:34;12.68;51.44
65374;SHT31;52070;53.760;9.678;2023-05-16T14:09:03;12.68;52.82
65374;SHT31;52070;53.760;9.678;2023-05-16T14:11:30;12.68;53.92
65374;SHT31;52070;53.760;9.678;2023-05-16T14:13:57;12.37;54.71
65374;SHT31;52070;53.760;9.678;2023-05-16T14:16:25;12.24;56.77
65374;SHT31;52070;53.760;9.678;2023-05-16T14:18:52;12.58;56.14
65374;SHT31;52070;53.760;9.678;2023-05-16T14:21:19;12.57;56.81
65374;SHT31;52070;53.760;9.678;2023-05-16T14:23:46;12.71;57.26
65374;SHT31;52070;53.760;9.678;2023-05-16T14:26:14;12.89;56.87
65374;SHT31;52070;53.760;9.678;2023-05-16T14:28:42;12.84;56.09
65374;SHT31;52070;53.760;9.678;2023-05-16T14:31:10;12.16;57.84
65374;SHT31;52070;53.760;9.678;2023-05-16T14:33:37;12.00;59.59
65374;SHT31;52070;53.760;9.678;2023-05-16T14:36:06;11.79;60.95
65374;SHT31;52070;53.760;9.678;2023-05-16T14:38:33;11.39;62.56
65374;SHT31;52070;53.760;9.678;2023-05-16T14:41:00;11.18;63.62
65374;SHT31;52070;53.760;9.678;2023-05-16T14:43:28;11.04;65.06
65374;SHT31;52070;53.760;9.678;2023-05-16T14:45:55;10.95;65.79
65374;SHT31;52070;53.760;9.678;2023-05-16T14:48:22;11.18;66.36
65374;SHT31;52070;53.760;9.678;2023-05-16T14:50:50;11.12;64.72
65374;SHT31;52070;53.760;9.678;2023-05-16T14:53:17;11.16;66.07
65374;SHT31;52070;53.760;9.678;2023-05-16T14:55:46;11.23;69.38
65374;SHT31;52070;53.760;9.678;2023-05-16T14:58:13;11.08;69.78
65374;SHT31;52070;53.760;9.678;2023-05-16T15:00:41;11.18;71.72
65374;SHT31;52070;53.760;9.678;2023-05-16T15:03:08;11.19;73.32
65374;SHT31;52070;53.760;9.678;2023-05-16T15:05:35;11.31;74.15
65374;SHT31;52070;53.760;9.678;2023-05-16T15:08:03;11.46;72.32
65374;SHT31;52070;53.760;9.678;2023-05-16T15:10:30;11.35;71.98
65374;SHT31;52070;53.760;9.678;2023-05-16T15:12:57;11.33;71.10
65374;SHT31;52070;53.760;9.678;2023-05-16T15:15:24;10.95;71.31
65374;SHT31;52070;53.760;9.678;2023-05-16T15:17:52;10.29;76.12
65374;SHT31;52070;53.760;9.678;2023-05-16T15:20:19;10.17;77.76
65374;SHT31;52070;53.760;9.678;2023-05-16T15:22:47;10.14;76.48
65374;SHT31;52070;53.760;9.678;2023-05-16T15:25:14;10.14;76.11
65374;SHT31;52070;53.760;9.678;2023-05-16T15:27:41;10.09;75.55
65374;SHT31;52070;53.760;9.678;2023-05-16T15:30:08;10.17;76.05
65374;SHT31;52070;53.760;9.678;2023-05-16T15:32:36;10.29;74.56
65374;SHT31;52070;53.760;9.678;2023-05-16T15:35:05;10.37;73.20
65374;SHT31;52070;53.760;9.678;2023-05-16T15:37:32;10.27;72.51
65374;SHT31;52070;53.760;9.678;2023-05-16T15:39:59;10.27;71.16